sensor_id;sensor_type;location;lat;lon;timestamp;temperature;humidity
16700;DHT22;8466;52.286;21.124;2024-01-30T00:02:22;0.10;99.90
16700;DHT22;8466;52.286;21.124;2024-01-30T00:04:51;0.10;99.90
16700;DHT22;8466;52.286;21.124;2024-01-30T00:07:20;0.00;99.90
16700;DHT22;8466;52.286;21.124;2024-01-30T00:09:50;0.00;99.90
16700;DHT22;8466;52.286;21.124;2024-01-30T00:12:20;0.10;99.90
16700;DHT22;8466;52.286;21.124;2024-01-30T00:14:48;0.10;99.90
16700;DHT22;8466;52.286;21.124;2024-01-30T00:17:22;0.20;99.90
16700;DHT22;8466;52.286;21.124;2024-01-30T00:19:52;0.10;99.90
16700;DHT22;8466;52.286;21.124;2024-01-30T00:22:21;0.00;99.90
16700;DHT22;8466;52.286;21.124;2024-01-30T00:24:49;0.00;99.90
16700;DHT22;8466;52.286;21.124;2024-01-30T00:27:18;0.00;99.90
16700;DHT22;8466;52.286;21.124;2024-01-30T00:29:47;0.10;99.90
16700;DHT22;8466;52.286;21.124;2024-01-30T00:32:16;0.10;99.90
16700;DHT22;8466;52.286;21.124;2024-01-30T00:34:47;0.10;99.90
16700;DHT22;8466;52.286;21.124;2024-01-30T00:37:16;0.10;99.90
16700;DHT22;8466;52.286;21.124;2024-01-30T00:39:45;0.10;99.90
16700;DHT22;8466;52.286;21.124;2024-01-30T00:42:14;0.10;99.90
16700;DHT22;8466;52.286;21.124;2024-01-30T00:44:42;0.10;99.90
16700;DHT22;8466;52.286;21.124;2024-01-30T00:47:11;0.10;99.90
16700;DHT22;8466;52.286;21.124;2024-01-30T00:49:39;0.00;99.90
16700;DHT22;8466;52.286;21.124;2024-01-30T00:52:10;0.00;99.90
16700;DHT22;8466;52.286;21.124;2024-01-30T00:54:39;0.00;99.90
16700;DHT22;8466;52.286;21.124;2024-01-30T00:57:08;0.00;99.90
16700;DHT22;8466;52.286;21.124;2024-01-30T00:59:36;0.00;99.90
16700;DHT22;8466;52.286;21.124;2024-01-30T01:02:05;-0.10;99.90
16700;DHT22;8466;52.286;21.124;2024-01-30T01:04:34;-0.10;99.90
16700;DHT22;8466;52.286;21.124;2024-01-30T01:07:03;-0.20;99.90
16700;DHT22;8466;52.286;21.124;2024-01-30T01:09:33;-0.20;99.90
16700;DHT22;8466;52.286;21.124;2024-01-30T01:12:02;-0.20;99.90
16700;DHT22;8466;52.286;21.124;2024-01-30T01:14:30;-0.20;99.90
16700;DHT22;8466;52.286;21.124;2024-01-30T01:16:59;-0.30;99.90
16700;DHT22;8466;52.286;21.124;2024-01-30T01:19:28;-0.30;99.90
16700;DHT22;8466;52.286;21.124;2024-01-30T01:21:56;-0.30;99.90
16700;DHT22;8466;52.286;21.124;2024-01-30T01:24:25;-0.40;99.90
16700;DHT22;8466;52.286;21.124;2024-01-30T01:26:55;-0.40;99.90
16700;DHT22;8466;52.286;21.124;2024-01-30T01:29:24;-0.40;99.90
16700;DHT22;8466;52.286;21.124;2024-01-30T01:31:56;-0.50;99.90
16700;DHT22;8466;52.286;21.124;2024-01-30T01:34:25;-0.50;99.90
16700;DHT22;8466;52.286;21.124;2024-01-30T01:36:57;-0.50;99.90
16700;DHT22;8466;52.286;21.124;2024-01-30T01:39:25;-0.60;99.90
16700;DHT22;8466;52.286;21.124;2024-01-30T01:41:58;-0.70;99.90
16700;DHT22;8466;52.286;21.124;2024-01-30T01:44:27;-0.70;99.90
16700;DHT22;8466;52.286;21.124;2024-01-30T01:46:57;-0.70;99.90
16700;DHT22;8466;52.286;21.124;2024-01-30T01:49:27;-0.70;99.90
16700;DHT22;8466;52.286;21.124;2024-01-30T01:51:58;-0.70;99.90
16700;DHT22;8466;52.286;21.124;2024-01-30T01:54:28;-0.80;99.90
16700;DHT22;8466;52.286;21.124;2024-01-30T01:56:59;-0.80;99.90
16700;DHT22;8466;52.286;21.124;2024-01-30T01:59:28;-0.80;99.90
16700;DHT22;8466;52.286;21.124;2024-01-30T02:01:57;-0.80;99.90
16700;DHT22;8466;52.286;21.124;2024-01-30T02:04:26;-0.80;99.90
16700;DHT22;8466;52.286;21.124;2024-01-30T02:06:55;-0.80;99.90
16700;DHT22;8466;52.286;21.124;2024-01-30T02:09:24;-0.80;99.90
16700;DHT22;8466;52.286;21.124;2024-01-30T02:11:53;-0.90;99.90
16700;DHT22;8466;52.286;21.124;2024-01-30T02:14:24;-0.90;99.90
16700;DHT22;8466;52.286;21.124;2024-01-30T02:16:57;-0.90;99.90
16700;DHT22;8466;52.286;21.124;2024-01-30T02:19:26;-0.80;99.90
16700;DHT22;8466;52.286;21.124;2024-01-30T02:21:56;-0.80;99.90
16700;DHT22;8466;52.286;21.124;2024-01-30T02:24:25;-0.80;99.90
16700;DHT22;8466;52.286;21.124;2024-01-30T02:26:53;-0.80;99.90
16700;DHT22;8466;52.286;21.124;2024-01-30T02:29:22;-0.80;99.90
16700;DHT22;8466;52.286;21.124;2024-01-30T02:31:51;-0.80;99.90
16700;DHT22;8466;52.286;21.124;2024-01-30T02:34:19;-0.80;99.90
16700;DHT22;8466;52.286;21.124;2024-01-30T02:36:48;-0.80;99.90
16700;DHT22;8466;52.286;21.124;2024-01-30T02:39:18;-0.80;99.90
16700;DHT22;8466;52.286;21.124;2024-01-30T02:41:47;-0.80;99.90
16700;DHT22;8466;52.286;21.124;2024-01-30T02:44:16;-0.90;99.90
16700;DHT22;8466;52.286;21.124;2024-01-30T02:46:44;-0.90;99.90
16700;DHT22;8466;52.286;21.124;2024-01-30T02:49:13;-0.90;99.90
16700;DHT22;8466;52.286;21.124;2024-01-30T02:51:42;-0.80;99.90
16700;DHT22;8466;52.286;21.124;2024-01-30T02:54:11;-0.80;99.90
16700;DHT22;8466;52.286;21.124;2024-01-30T02:56:41;-0.80;99.90
16700;DHT22;8466;52.286;21.124;2024-01-30T02:59:09;-0.80;99.90
16700;DHT22;8466;52.286;21.124;2024-01-30T03:01:45;-0.80;99.90
16700;DHT22;8466;52.286;21.124;2024-01-30T03:04:15;-0.80;99.90
16700;DHT22;8466;52.286;21.124;2024-01-30T03:06:45;-0.80;99.90
16700;DHT22;8466;52.286;21.124;2024-01-30T03:09:16;-0.80;99.90
16700;DHT22;8466;52.286;21.124;2024-01-30T03:11:46;-0.80;99.90
16700;DHT22;8466;52.286;21.124;2024-01-30T03:14:15;-0.80;99.90
16700;DHT22;8466;52.286;21.124;2024-01-30T03:16:44;-0.80;99.90
16700;DHT22;8466;52.286;21.124;2024-01-30T03:19:12;-0.80;99.90
16700;DHT22;8466;52.286;21.124;2024-01-30T03:21:41;-0.80;99.90
16700;DHT22;8466;52.286;21.124;2024-01-30T03:24:10;-0.80;99.90
16700;DHT22;8466;52.286;21.124;2024-01-30T03:26:38;-0.80;99.90
16700;DHT22;8466;52.286;21.124;2024-01-30T03:29:11;-0.90;99.90
16700;DHT22;8466;52.286;21.124;2024-01-30T03:31:41;-0.80;99.90
16700;DHT22;8466;52.286;21.124;2024-01-30T03:34:10;-0.80;99.90
16700;DHT22;8466;52.286;21.124;2024-01-30T03:36:39;-0.90;99.90
16700;DHT22;8466;52.286;21.124;2024-01-30T03:39:07;-0.90;99.90
16700;DHT22;8466;52.286;21.124;2024-01-30T03:41:36;-0.90;99.90
16700;DHT22;8466;52.286;21.124;2024-01-30T03:44:07;-0.90;99.90
16700;DHT22;8466;52.286;21.124;2024-01-30T03:46:36;-0.90;99.90
16700;DHT22;8466;52.286;21.124;2024-01-30T03:49:05;-0.80;99.90
16700;DHT22;8466;52.286;21.124;2024-01-30T03:51:33;-0.90;99.90
16700;DHT22;8466;52.286;21.124;2024-01-30T03:54:02;-0.80;99.90
16700;DHT22;8466;52.286;21.124;2024-01-30T03:56:32;-0.80;99.90
16700;DHT22;8466;52.286;21.124;2024-01-30T03:59:00;-0.80;99.90
16700;DHT22;8466;52.286;21.124;2024-01-30T04:01:31;-0.70;99.90
16700;DHT22;8466;52.286;21.124;2024-01-30T04:04:00;-0.70;99.90
16700;DHT22;8466;52.286;21.124;2024-01-30T04:06:29;-0.70;99.90
16700;DHT22;8466;52.286;21.124;2024-01-30T04:08:58;-0.80;99.90
16700;DHT22;8466;52.286;21.124;2024-01-30T04:11:26;-0.80;99.90
16700;DHT22;8466;52.286;21.124;2024-01-30T04:13:55;-0.80;99.90
16700;DHT22;8466;52.286;21.124;2024-01-30T04:16:24;-0.70;99.90
16700;DHT22;8466;52.286;21.124;2024-01-30T04:18:54;-0.70;99.90
16700;DHT22;8466;52.286;21.124;2024-01-30T04:21:23;-0.80;99.90
16700;DHT22;8466;52.286;21.124;2024-01-30T04:23:52;-0.80;99.90
16700;DHT22;8466;52.286;21.124;2024-01-30T04:26:21;-0.80;99.90
16700;DHT22;8466;52.286;21.124;2024-01-30T04:28:50;-0.80;99.90
16700;DHT22;8466;52.286;21.124;2024-01-30T04:31:19;-0.70;99.90
16700;DHT22;8466;52.286;21.124;2024-01-30T04:33:48;-0.70;99.90
16700;DHT22;8466;52.286;21.124;2024-01-30T04:36:18;-0.70;99.90
16700;DHT22;8466;52.286;21.124;2024-01-30T04:38:47;-0.70;99.90
16700;DHT22;8466;52.286;21.124;2024-01-30T04:41:15;-0.70;99.90
16700;DHT22;8466;52.286;21.124;2024-01-30T04:43:44;-0.70;99.90
16700;DHT22;8466;52.286;21.124;2024-01-30T04:46:13;-0.70;99.90
16700;DHT22;8466;52.286;21.124;2024-01-30T04:48:42;-0.70;99.90
16700;DHT22;8466;52.286;21.124;2024-01-30T04:51:11;-0.80;99.90
16700;DHT22;8466;52.286;21.124;2024-01-30T04:53:41;-0.80;99.90
16700;DHT22;8466;52.286;21.124;2024-01-30T04:56:09;-0.70;99.90
16700;DHT22;8466;52.286;21.124;2024-01-30T04:58:38;-0.80;99.90
16700;DHT22;8466;52.286;21.124;2024-01-30T05:01:06;-0.80;99.90
16700;DHT22;8466;52.286;21.124;2024-01-30T05:03:35;-0.80;99.90
16700;DHT22;8466;52.286;21.124;2024-01-30T05:06:04;-0.80;99.90
16700;DHT22;8466;52.286;21.124;2024-01-30T05:08:33;-0.80;99.90
16700;DHT22;8466;52.286;21.124;2024-01-30T05:11:05;-0.80;99.90
16700;DHT22;8466;52.286;21.124;2024-01-30T05:13:34;-0.70;99.90
16700;DHT22;8466;52.286;21.124;2024-01-30T05:16:03;-0.60;99.90
16700;DHT22;8466;52.286;21.124;2024-01-30T05:18:32;-0.70;99.90
16700;DHT22;8466;52.286;21.124;2024-01-30T05:21:02;-0.70;99.90
16700;DHT22;8466;52.286;21.124;2024-01-30T05:23:31;-0.70;99.90
16700;DHT22;8466;52.286;21.124;2024-01-30T05:26:00;-0.70;99.90
16700;DHT22;8466;52.286;21.124;2024-01-30T05:28:32;-0.70;99.90
16700;DHT22;8466;52.286;21.124;2024-01-30T05:31:01;-0.70;99.90
16700;DHT22;8466;52.286;21.124;2024-01-30T05:33:30;-0.70;99.90
16700;DHT22;8466;52.286;21.124;2024-01-30T05:35:59;-0.70;99.90
16700;DHT22;8466;52.286;21.124;2024-01-30T05:38:28;-0.70;99.90
16700;DHT22;8466;52.286;21.124;2024-01-30T05:40:57;-0.60;99.90
16700;DHT22;8466;52.286;21.124;2024-01-30T05:43:26;-0.50;99.90
16700;DHT22;8466;52.286;21.124;2024-01-30T05:45:56;-0.60;99.90
16700;DHT22;8466;52.286;21.124;2024-01-30T05:48:24;-0.60;99.90
16700;DHT22;8466;52.286;21.124;2024-01-30T05:50:54;-0.70;99.90
16700;DHT22;8466;52.286;21.124;2024-01-30T05:53:22;-0.70;99.90
16700;DHT22;8466;52.286;21.124;2024-01-30T05:55:51;-0.70;99.90
16700;DHT22;8466;52.286;21.124;2024-01-30T05:58:20;-0.70;99.90
16700;DHT22;8466;52.286;21.124;2024-01-30T06:00:49;-0.80;99.90
16700;DHT22;8466;52.286;21.124;2024-01-30T06:03:24;-0.80;99.90
16700;DHT22;8466;52.286;21.124;2024-01-30T06:05:52;-0.80;99.90
16700;DHT22;8466;52.286;21.124;2024-01-30T06:08:21;-0.80;99.90
16700;DHT22;8466;52.286;21.124;2024-01-30T06:10:50;-0.90;99.90
16700;DHT22;8466;52.286;21.124;2024-01-30T06:13:19;-0.80;99.90
16700;DHT22;8466;52.286;21.124;2024-01-30T06:15:49;-0.70;99.90
16700;DHT22;8466;52.286;21.124;2024-01-30T06:18:18;-0.70;99.90
16700;DHT22;8466;52.286;21.124;2024-01-30T06:20:49;-0.70;99.90
16700;DHT22;8466;52.286;21.124;2024-01-30T06:23:18;-0.60;99.90
16700;DHT22;8466;52.286;21.124;2024-01-30T06:25:47;-0.60;99.90
16700;DHT22;8466;52.286;21.124;2024-01-30T06:28:16;-0.60;99.90
16700;DHT22;8466;52.286;21.124;2024-01-30T06:30:46;-0.60;99.90
16700;DHT22;8466;52.286;21.124;2024-01-30T06:33:18;-0.60;99.90
16700;DHT22;8466;52.286;21.124;2024-01-30T06:35:49;-0.60;99.90
16700;DHT22;8466;52.286;21.124;2024-01-30T06:38:17;-0.60;99.90
16700;DHT22;8466;52.286;21.124;2024-01-30T06:40:46;-0.60;99.90
16700;DHT22;8466;52.286;21.124;2024-01-30T06:43:15;-0.60;99.90
16700;DHT22;8466;52.286;21.124;2024-01-30T06:45:44;-0.60;99.90
16700;DHT22;8466;52.286;21.124;2024-01-30T06:48:13;-0.50;99.90
16700;DHT22;8466;52.286;21.124;2024-01-30T06:50:42;-0.40;99.90
16700;DHT22;8466;52.286;21.124;2024-01-30T06:53:13;-0.50;99.90
16700;DHT22;8466;52.286;21.124;2024-01-30T06:55:43;-0.50;99.90
16700;DHT22;8466;52.286;21.124;2024-01-30T06:58:15;-0.50;99.90
16700;DHT22;8466;52.286;21.124;2024-01-30T07:00:44;-0.50;99.90
16700;DHT22;8466;52.286;21.124;2024-01-30T07:03:13;-0.40;99.90
16700;DHT22;8466;52.286;21.124;2024-01-30T07:05:42;-0.30;99.90
16700;DHT22;8466;52.286;21.124;2024-01-30T07:08:13;-0.30;99.90
16700;DHT22;8466;52.286;21.124;2024-01-30T07:10:45;-0.30;99.90
16700;DHT22;8466;52.286;21.124;2024-01-30T07:13:14;-0.30;99.90
16700;DHT22;8466;52.286;21.124;2024-01-30T07:15:44;-0.20;99.90
16700;DHT22;8466;52.286;21.124;2024-01-30T07:18:13;-0.10;99.90
16700;DHT22;8466;52.286;21.124;2024-01-30T07:20:42;-0.10;99.90
16700;DHT22;8466;52.286;21.124;2024-01-30T07:23:15;-0.10;99.90
16700;DHT22;8466;52.286;21.124;2024-01-30T07:25:45;0.00;99.90
16700;DHT22;8466;52.286;21.124;2024-01-30T07:28:20;0.00;99.90
16700;DHT22;8466;52.286;21.124;2024-01-30T07:30:53;0.10;99.90
16700;DHT22;8466;52.286;21.124;2024-01-30T07:33:23;0.20;99.90
16700;DHT22;8466;52.286;21.124;2024-01-30T07:35:52;0.20;99.90
16700;DHT22;8466;52.286;21.124;2024-01-30T07:38:23;0.30;99.90
16700;DHT22;8466;52.286;21.124;2024-01-30T07:40:51;0.30;99.90
16700;DHT22;8466;52.286;21.124;2024-01-30T07:43:20;0.40;99.90
16700;DHT22;8466;52.286;21.124;2024-01-30T07:45:50;0.40;99.90
16700;DHT22;8466;52.286;21.124;2024-01-30T07:48:19;0.50;99.90
16700;DHT22;8466;52.286;21.124;2024-01-30T07:50:48;0.60;99.90
16700;DHT22;8466;52.286;21.124;2024-01-30T07:53:17;0.60;99.90
16700;DHT22;8466;52.286;21.124;2024-01-30T07:55:47;0.70;99.90
16700;DHT22;8466;52.286;21.124;2024-01-30T07:58:17;0.70;99.90
16700;DHT22;8466;52.286;21.124;2024-01-30T08:00:46;0.80;99.90
16700;DHT22;8466;52.286;21.124;2024-01-30T08:03:15;0.80;99.90
16700;DHT22;8466;52.286;21.124;2024-01-30T08:05:45;0.80;99.90
16700;DHT22;8466;52.286;21.124;2024-01-30T08:08:14;0.80;99.90
16700;DHT22;8466;52.286;21.124;2024-01-30T08:10:42;0.90;99.90
16700;DHT22;8466;52.286;21.124;2024-01-30T08:13:12;0.90;99.90
16700;DHT22;8466;52.286;21.124;2024-01-30T08:15:41;1.00;99.90
16700;DHT22;8466;52.286;21.124;2024-01-30T08:18:10;1.10;99.90
16700;DHT22;8466;52.286;21.124;2024-01-30T08:20:38;1.10;99.90
16700;DHT22;8466;52.286;21.124;2024-01-30T08:23:07;1.20;99.90
16700;DHT22;8466;52.286;21.124;2024-01-30T08:25:36;1.20;99.90
16700;DHT22;8466;52.286;21.124;2024-01-30T08:28:05;1.20;99.90
16700;DHT22;8466;52.286;21.124;2024-01-30T08:30:36;1.20;99.90
16700;DHT22;8466;52.286;21.124;2024-01-30T08:33:06;1.40;99.90
16700;DHT22;8466;52.286;21.124;2024-01-30T08:35:35;1.40;99.90
16700;DHT22;8466;52.286;21.124;2024-01-30T08:38:05;1.40;99.90
16700;DHT22;8466;52.286;21.124;2024-01-30T08:40:34;1.40;99.90
16700;DHT22;8466;52.286;21.124;2024-01-30T08:43:02;1.40;99.90
16700;DHT22;8466;52.286;21.124;2024-01-30T08:45:31;1.30;99.90
16700;DHT22;8466;52.286;21.124;2024-01-30T08:48:01;1.50;99.90
16700;DHT22;8466;52.286;21.124;2024-01-30T08:50:30;1.60;99.90
16700;DHT22;8466;52.286;21.124;2024-01-30T08:53:05;1.70;99.90
16700;DHT22;8466;52.286;21.124;2024-01-30T08:55:34;1.80;99.90
16700;DHT22;8466;52.286;21.124;2024-01-30T08:58:03;1.80;99.90
16700;DHT22;8466;52.286;21.124;2024-01-30T09:00:32;1.90;99.90
16700;DHT22;8466;52.286;21.124;2024-01-30T09:03:09;1.90;99.90
16700;DHT22;8466;52.286;21.124;2024-01-30T09:05:38;2.00;99.90
16700;DHT22;8466;52.286;21.124;2024-01-30T09:08:08;2.10;99.90
16700;DHT22;8466;52.286;21.124;2024-01-30T09:10:38;2.20;99.90
16700;DHT22;8466;52.286;21.124;2024-01-30T09:13:08;2.20;99.90
16700;DHT22;8466;52.286;21.124;2024-01-30T09:15:37;2.40;99.90
16700;DHT22;8466;52.286;21.124;2024-01-30T09:18:07;2.40;99.90
16700;DHT22;8466;52.286;21.124;2024-01-30T09:20:36;2.50;99.90
16700;DHT22;8466;52.286;21.124;2024-01-30T09:23:06;2.60;99.90
16700;DHT22;8466;52.286;21.124;2024-01-30T09:25:36;2.70;99.90
16700;DHT22;8466;52.286;21.124;2024-01-30T09:28:05;2.80;99.90
16700;DHT22;8466;52.286;21.124;2024-01-30T09:30:35;2.90;99.90
16700;DHT22;8466;52.286;21.124;2024-01-30T09:33:07;2.90;99.90
16700;DHT22;8466;52.286;21.124;2024-01-30T09:35:36;3.00;99.90
16700;DHT22;8466;52.286;21.124;2024-01-30T09:38:05;3.10;99.90
16700;DHT22;8466;52.286;21.124;2024-01-30T09:40:34;3.10;99.90
16700;DHT22;8466;52.286;21.124;2024-01-30T09:43:03;3.30;99.90
16700;DHT22;8466;52.286;21.124;2024-01-30T09:45:32;3.30;99.90
16700;DHT22;8466;52.286;21.124;2024-01-30T09:48:02;3.40;99.90
16700;DHT22;8466;52.286;21.124;2024-01-30T09:50:34;3.50;99.90
16700;DHT22;8466;52.286;21.124;2024-01-30T09:53:07;3.50;99.90
16700;DHT22;8466;52.286;21.124;2024-01-30T09:55:37;3.60;99.90
16700;DHT22;8466;52.286;21.124;2024-01-30T09:58:06;3.60;99.90
16700;DHT22;8466;52.286;21.124;2024-01-30T10:00:39;3.60;99.90
16700;DHT22;8466;52.286;21.124;2024-01-30T10:03:11;3.70;99.90
16700;DHT22;8466;52.286;21.124;2024-01-30T10:05:48;3.80;99.90
16700;DHT22;8466;52.286;21.124;2024-01-30T10:08:19;3.90;99.90
16700;DHT22;8466;52.286;21.124;2024-01-30T10:10:48;3.90;99.90
16700;DHT22;8466;52.286;21.124;2024-01-30T10:13:18;3.90;99.90
16700;DHT22;8466;52.286;21.124;2024-01-30T10:15:47;3.90;99.90
16700;DHT22;8466;52.286;21.124;2024-01-30T10:18:16;4.00;99.90
16700;DHT22;8466;52.286;21.124;2024-01-30T10:20:47;4.00;99.90
16700;DHT22;8466;52.286;21.124;2024-01-30T10:23:16;4.10;99.90
16700;DHT22;8466;52.286;21.124;2024-01-30T10:25:44;4.10;99.90
16700;DHT22;8466;52.286;21.124;2024-01-30T10:28:13;4.20;99.90
16700;DHT22;8466;52.286;21.124;2024-01-30T10:30:45;4.20;99.90
16700;DHT22;8466;52.286;21.124;2024-01-30T10:33:16;4.30;99.90
16700;DHT22;8466;52.286;21.124;2024-01-30T10:35:47;4.30;99.90
16700;DHT22;8466;52.286;21.124;2024-01-30T10:38:20;4.40;99.90
16700;DHT22;8466;52.286;21.124;2024-01-30T10:40:52;4.50;99.90
16700;DHT22;8466;52.286;21.124;2024-01-30T10:43:24;4.50;99.90
16700;DHT22;8466;52.286;21.124;2024-01-30T10:45:57;4.60;99.90
16700;DHT22;8466;52.286;21.124;2024-01-30T10:48:32;4.60;99.90
16700;DHT22;8466;52.286;21.124;2024-01-30T10:51:10;4.70;99.90
16700;DHT22;8466;52.286;21.124;2024-01-30T10:53:40;4.80;99.90
16700;DHT22;8466;52.286;21.124;2024-01-30T10:56:10;4.90;99.90
16700;DHT22;8466;52.286;21.124;2024-01-30T10:58:43;5.10;99.90
16700;DHT22;8466;52.286;21.124;2024-01-30T11:01:13;5.10;99.90
16700;DHT22;8466;52.286;21.124;2024-01-30T11:03:43;5.20;99.90
16700;DHT22;8466;52.286;21.124;2024-01-30T11:06:14;5.20;99.90
16700;DHT22;8466;52.286;21.124;2024-01-30T11:08:46;5.30;99.90
16700;DHT22;8466;52.286;21.124;2024-01-30T11:11:16;5.30;99.90
16700;DHT22;8466;52.286;21.124;2024-01-30T11:13:45;5.30;99.90
16700;DHT22;8466;52.286;21.124;2024-01-30T11:16:20;5.40;99.90
16700;DHT22;8466;52.286;21.124;2024-01-30T11:18:50;5.50;99.90
16700;DHT22;8466;52.286;21.124;2024-01-30T11:21:25;5.50;99.90
16700;DHT22;8466;52.286;21.124;2024-01-30T11:23:55;5.50;99.90
16700;DHT22;8466;52.286;21.124;2024-01-30T11:26:28;5.60;99.90
16700;DHT22;8466;52.286;21.124;2024-01-30T11:28:57;5.70;99.90
16700;DHT22;8466;52.286;21.124;2024-01-30T11:31:26;5.70;99.90
16700;DHT22;8466;52.286;21.124;2024-01-30T11:33:56;5.70;99.90
16700;DHT22;8466;52.286;21.124;2024-01-30T11:36:27;5.70;99.90
16700;DHT22;8466;52.286;21.124;2024-01-30T11:38:57;5.70;99.90
16700;DHT22;8466;52.286;21.124;2024-01-30T11:41:26;5.70;99.90
16700;DHT22;8466;52.286;21.124;2024-01-30T11:44:21;5.70;99.90
16700;DHT22;8466;52.286;21.124;2024-01-30T11:46:56;5.70;99.90
16700;DHT22;8466;52.286;21.124;2024-01-30T11:49:37;5.80;99.90
16700;DHT22;8466;52.286;21.124;2024-01-30T11:52:07;5.70;99.90
16700;DHT22;8466;52.286;21.124;2024-01-30T11:54:45;5.80;99.90
16700;DHT22;8466;52.286;21.124;2024-01-30T11:57:21;5.80;99.90
16700;DHT22;8466;52.286;21.124;2024-01-30T11:59:58;5.80;99.90
16700;DHT22;8466;52.286;21.124;2024-01-30T12:02:37;5.90;99.90
16700;DHT22;8466;52.286;21.124;2024-01-30T12:05:20;5.90;99.90
16700;DHT22;8466;52.286;21.124;2024-01-30T12:07:50;6.00;99.90
16700;DHT22;8466;52.286;21.124;2024-01-30T12:10:20;6.00;99.90
16700;DHT22;8466;52.286;21.124;2024-01-30T12:12:50;6.00;99.90
16700;DHT22;8466;52.286;21.124;2024-01-30T12:15:20;6.10;99.90
16700;DHT22;8466;52.286;21.124;2024-01-30T12:17:50;6.10;99.90
16700;DHT22;8466;52.286;21.124;2024-01-30T12:20:19;6.10;99.90
16700;DHT22;8466;52.286;21.124;2024-01-30T12:22:52;6.00;99.90
16700;DHT22;8466;52.286;21.124;2024-01-30T12:25:22;6.10;99.90
16700;DHT22;8466;52.286;21.124;2024-01-30T12:27:51;6.10;99.90
16700;DHT22;8466;52.286;21.124;2024-01-30T12:30:20;6.10;99.90
16700;DHT22;8466;52.286;21.124;2024-01-30T12:32:50;6.20;99.90
16700;DHT22;8466;52.286;21.124;2024-01-30T12:35:20;6.30;99.90
16700;DHT22;8466;52.286;21.124;2024-01-30T12:37:49;6.30;99.90
16700;DHT22;8466;52.286;21.124;2024-01-30T12:40:21;6.30;99.90
16700;DHT22;8466;52.286;21.124;2024-01-30T12:42:52;6.30;99.90
16700;DHT22;8466;52.286;21.124;2024-01-30T12:45:21;6.00;99.90
16700;DHT22;8466;52.286;21.124;2024-01-30T12:47:50;6.20;99.90
16700;DHT22;8466;52.286;21.124;2024-01-30T12:50:19;6.20;99.90
16700;DHT22;8466;52.286;21.124;2024-01-30T12:52:48;6.20;99.90
16700;DHT22;8466;52.286;21.124;2024-01-30T12:55:17;6.20;99.90
16700;DHT22;8466;52.286;21.124;2024-01-30T12:57:47;6.30;99.90
16700;DHT22;8466;52.286;21.124;2024-01-30T13:00:16;6.30;99.90
16700;DHT22;8466;52.286;21.124;2024-01-30T13:02:45;6.30;99.90
16700;DHT22;8466;52.286;21.124;2024-01-30T13:05:14;6.30;99.90
16700;DHT22;8466;52.286;21.124;2024-01-30T13:07:43;6.30;99.90
16700;DHT22;8466;52.286;21.124;2024-01-30T13:10:12;6.30;99.90
16700;DHT22;8466;52.286;21.124;2024-01-30T13:12:41;6.40;99.90
16700;DHT22;8466;52.286;21.124;2024-01-30T13:15:11;6.40;99.90
16700;DHT22;8466;52.286;21.124;2024-01-30T13:17:39;6.40;99.90
16700;DHT22;8466;52.286;21.124;2024-01-30T13:20:10;6.40;99.90
16700;DHT22;8466;52.286;21.124;2024-01-30T13:22:39;6.50;99.90
16700;DHT22;8466;52.286;21.124;2024-01-30T13:25:08;6.50;99.90
16700;DHT22;8466;52.286;21.124;2024-01-30T13:27:37;6.60;99.90
16700;DHT22;8466;52.286;21.124;2024-01-30T13:30:08;6.60;99.90
16700;DHT22;8466;52.286;21.124;2024-01-30T13:32:39;6.60;99.90
16700;DHT22;8466;52.286;21.124;2024-01-30T13:35:08;6.60;99.90
16700;DHT22;8466;52.286;21.124;2024-01-30T13:37:37;6.60;99.90
16700;DHT22;8466;52.286;21.124;2024-01-30T13:40:18;6.70;99.90
16700;DHT22;8466;52.286;21.124;2024-01-30T13:42:49;6.70;99.90
16700;DHT22;8466;52.286;21.124;2024-01-30T13:45:19;6.70;99.90
16700;DHT22;8466;52.286;21.124;2024-01-30T13:47:51;6.70;99.90
16700;DHT22;8466;52.286;21.124;2024-01-30T13:50:21;6.60;99.90
16700;DHT22;8466;52.286;21.124;2024-01-30T13:52:49;6.60;99.90
16700;DHT22;8466;52.286;21.124;2024-01-30T13:55:19;6.50;99.90
16700;DHT22;8466;52.286;21.124;2024-01-30T13:57:47;6.50;99.90
16700;DHT22;8466;52.286;21.124;2024-01-30T14:00:18;6.40;99.90
16700;DHT22;8466;52.286;21.124;2024-01-30T14:02:50;6.40;99.90
16700;DHT22;8466;52.286;21.124;2024-01-30T14:05:21;6.30;99.90
16700;DHT22;8466;52.286;21.124;2024-01-30T14:07:51;6.30;99.90
16700;DHT22;8466;52.286;21.124;2024-01-30T14:10:20;6.20;99.90
16700;DHT22;8466;52.286;21.124;2024-01-30T14:12:49;6.20;99.90
16700;DHT22;8466;52.286;21.124;2024-01-30T14:15:18;6.10;99.90
16700;DHT22;8466;52.286;21.124;2024-01-30T14:17:56;6.10;99.90
16700;DHT22;8466;52.286;21.124;2024-01-30T14:20:26;6.10;99.90
16700;DHT22;8466;52.286;21.124;2024-01-30T14:22:55;6.10;99.90
16700;DHT22;8466;52.286;21.124;2024-01-30T14:25:24;6.10;99.90
16700;DHT22;8466;52.286;21.124;2024-01-30T14:27:53;6.00;99.90
16700;DHT22;8466;52.286;21.124;2024-01-30T14:30:21;6.00;99.90
16700;DHT22;8466;52.286;21.124;2024-01-30T14:32:50;5.90;99.90
16700;DHT22;8466;52.286;21.124;2024-01-30T14:35:21;5.80;99.90
16700;DHT22;8466;52.286;21.124;2024-01-30T14:37:50;5.70;99.90
16700;DHT22;8466;52.286;21.124;2024-01-30T14:40:19;5.60;99.90
16700;DHT22;8466;52.286;21.124;2024-01-30T14:42:54;5.50;99.90
16700;DHT22;8466;52.286;21.124;2024-01-30T14:45:24;5.40;99.90
16700;DHT22;8466;52.286;21.124;2024-01-30T14:47:53;5.40;99.90
16700;DHT22;8466;52.286;21.124;2024-01-30T14:50:24;5.30;99.90
16700;DHT22;8466;52.286;21.124;2024-01-30T14:52:54;5.30;99.90
16700;DHT22;8466;52.286;21.124;2024-01-30T14:55:23;5.20;99.90
16700;DHT22;8466;52.286;21.124;2024-01-30T14:57:52;5.20;99.90
16700;DHT22;8466;52.286;21.124;2024-01-30T15:00:21;5.20;99.90
16700;DHT22;8466;52.286;21.124;2024-01-30T15:02:50;5.10;99.90
16700;DHT22;8466;52.286;21.124;2024-01-30T15:05:19;5.10;99.90
16700;DHT22;8466;52.286;21.124;2024-01-30T15:07:59;5.00;99.90
16700;DHT22;8466;52.286;21.124;2024-01-30T15:10:28;4.90;99.90
16700;DHT22;8466;52.286;21.124;2024-01-30T15:12:57;4.90;99.90
16700;DHT22;8466;52.286;21.124;2024-01-30T15:15:26;4.80;99.90
16700;DHT22;8466;52.286;21.124;2024-01-30T15:17:55;4.70;99.90
16700;DHT22;8466;52.286;21.124;2024-01-30T15:20:25;4.70;99.90
16700;DHT22;8466;52.286;21.124;2024-01-30T15:22:54;4.60;99.90
16700;DHT22;8466;52.286;21.124;2024-01-30T15:25:24;4.60;99.90
16700;DHT22;8466;52.286;21.124;2024-01-30T15:27:53;4.60;99.90
16700;DHT22;8466;52.286;21.124;2024-01-30T15:30:21;4.50;99.90
16700;DHT22;8466;52.286;21.124;2024-01-30T15:32:50;4.50;99.90
16700;DHT22;8466;52.286;21.124;2024-01-30T15:35:19;4.50;99.90
16700;DHT22;8466;52.286;21.124;2024-01-30T15:37:47;4.40;99.90
16700;DHT22;8466;52.286;21.124;2024-01-30T15:40:16;4.40;99.90
16700;DHT22;8466;52.286;21.124;2024-01-30T15:42:47;4.30;99.90
16700;DHT22;8466;52.286;21.124;2024-01-30T15:45:16;4.30;99.90
16700;DHT22;8466;52.286;21.124;2024-01-30T15:47:44;4.30;99.90
16700;DHT22;8466;52.286;21.124;2024-01-30T15:50:13;4.30;99.90
16700;DHT22;8466;52.286;21.124;2024-01-30T15:52:42;4.20;99.90
16700;DHT22;8466;52.286;21.124;2024-01-30T15:55:11;4.20;99.90
16700;DHT22;8466;52.286;21.124;2024-01-30T15:57:41;4.20;99.90